createdAt,value
2019-01-25T00:00:33.916Z,-3.53
2019-01-25T00:01:33.873Z,-3.64
2019-01-25T00:02:33.886Z,-3.53
2019-01-25T00:03:33.916Z,-3.51
2019-01-25T00:04:33.879Z,-3.50
2019-01-25T00:05:33.848Z,-3.53
2019-01-25T00:06:33.852Z,-3.48
2019-01-25T00:07:33.829Z,-3.48
2019-01-25T00:08:33.838Z,-3.61
2019-01-25T00:09:33.871Z,-3.53
2019-01-25T00:10:33.810Z,-3.59
2019-01-25T00:11:33.751Z,-3.61
2019-01-25T00:12:33.795Z,-3.56
2019-01-25T00:13:33.765Z,-3.58
2019-01-25T00:14:33.787Z,-3.62
2019-01-25T00:15:33.749Z,-3.50
2019-01-25T00:16:33.719Z,-3.61
2019-01-25T00:17:33.696Z,-3.59
2019-01-25T00:18:33.728Z,-3.56
2019-01-25T00:19:33.665Z,-3.58
2019-01-25T00:20:33.696Z,-3.58
2019-01-25T00:21:33.698Z,-3.56
2019-01-25T00:22:33.699Z,-3.56
2019-01-25T00:23:33.645Z,-3.64
2019-01-25T00:24:33.626Z,-3.58
2019-01-25T00:25:33.657Z,-3.61
2019-01-25T00:26:33.604Z,-3.56
2019-01-25T00:27:33.645Z,-3.58
2019-01-25T00:28:33.597Z,-3.48
2019-01-25T00:29:33.575Z,-3.62
2019-01-25T00:30:33.586Z,-3.44
2019-01-25T00:31:33.568Z,-3.58
2019-01-25T00:32:33.546Z,-3.55
2019-01-25T00:33:33.568Z,-3.56
2019-01-25T00:34:33.555Z,-3.55
2019-01-25T00:35:33.523Z,-3.59
2019-01-25T00:36:33.512Z,-3.51
2019-01-25T00:37:33.503Z,-3.61
2019-01-25T00:38:33.500Z,-3.64
2019-01-25T00:39:33.487Z,-3.56
2019-01-25T00:40:33.475Z,-3.56
2019-01-25T00:41:33.464Z,-3.58
2019-01-25T00:42:33.436Z,-3.53
2019-01-25T00:43:33.466Z,-3.50
2019-01-25T00:44:33.438Z,-3.56
2019-01-25T00:45:33.435Z,-3.64
2019-01-25T00:46:33.424Z,-3.44
2019-01-25T00:47:33.394Z,-3.56
2019-01-25T00:48:33.405Z,-3.56
2019-01-25T00:49:33.390Z,-3.50
2019-01-25T00:50:33.385Z,-3.59
2019-01-25T00:51:33.376Z,-3.58
2019-01-25T00:52:33.338Z,-3.64
2019-01-25T00:53:33.344Z,-3.56
2019-01-25T00:54:33.340Z,-3.58
2019-01-25T00:55:33.324Z,-3.58
2019-01-25T00:56:33.340Z,-3.62
2019-01-25T00:57:33.308Z,-3.59
2019-01-25T00:58:33.279Z,-3.59
2019-01-25T00:59:33.354Z,-3.55
2019-01-25T01:00:33.290Z,-3.58
2019-01-25T01:01:33.278Z,-3.66
2019-01-25T01:02:33.256Z,-3.64
2019-01-25T01:03:33.238Z,-3.62
2019-01-25T01:04:33.216Z,-3.61
2019-01-25T01:05:33.226Z,-3.65
2019-01-25T01:06:33.206Z,-3.62
2019-01-25T01:07:33.207Z,-3.64
2019-01-25T01:08:33.232Z,-3.58
2019-01-25T01:09:33.202Z,-3.62
2019-01-25T01:10:33.244Z,-3.62
2019-01-25T01:11:33.160Z,-3.61
2019-01-25T01:12:33.150Z,-3.58
2019-01-25T01:13:33.140Z,-3.66
2019-01-25T01:14:33.156Z,-3.61
2019-01-25T01:15:33.167Z,-3.62
2019-01-25T01:16:33.120Z,-3.65
2019-01-25T01:17:33.089Z,-3.62
2019-01-25T01:18:33.096Z,-3.59
2019-01-25T01:19:33.067Z,-3.64
2019-01-25T01:20:33.073Z,-3.65
2019-01-25T01:21:33.106Z,-3.58
2019-01-25T01:22:33.046Z,-3.56
2019-01-25T01:23:33.061Z,-3.62
2019-01-25T01:24:33.031Z,-3.61
2019-01-25T01:25:33.052Z,-3.66
2019-01-25T01:26:33.039Z,-3.62
2019-01-25T01:27:33.019Z,-3.62
2019-01-25T01:28:33.019Z,-3.64
2019-01-25T01:29:32.969Z,-3.62
2019-01-25T01:30:32.998Z,-3.61
2019-01-25T01:31:32.968Z,-3.62
2019-01-25T01:32:32.968Z,-3.62
2019-01-25T01:33:32.965Z,-3.59
2019-01-25T01:34:32.926Z,-3.61
2019-01-25T01:35:32.902Z,-3.65
2019-01-25T01:36:32.921Z,-3.66
2019-01-25T01:37:32.890Z,-3.62
2019-01-25T01:38:32.893Z,-3.64
2019-01-25T01:39:32.908Z,-3.62
2019-01-25T01:40:32.860Z,-3.58
2019-01-25T01:41:32.859Z,-3.62
2019-01-25T01:42:32.850Z,-3.64
2019-01-25T01:43:32.834Z,-3.62
2019-01-25T01:44:32.841Z,-3.62
2019-01-25T01:45:32.865Z,-3.71
2019-01-25T01:46:32.823Z,-3.74
2019-01-25T01:47:32.845Z,-3.69
2019-01-25T01:48:32.795Z,-3.74
2019-01-25T01:49:32.787Z,-3.68
2019-01-25T01:50:32.782Z,-3.71
2019-01-25T01:51:32.781Z,-3.69
2019-01-25T01:52:32.769Z,-3.68
2019-01-25T01:53:32.767Z,-3.66
2019-01-25T01:54:32.805Z,-3.74
2019-01-25T01:55:32.735Z,-3.66
2019-01-25T01:56:32.719Z,-3.74
2019-01-25T01:57:32.702Z,-3.68
2019-01-25T01:58:32.706Z,-3.69
2019-01-25T01:59:32.684Z,-3.65
2019-01-25T02:00:32.691Z,-3.68
2019-01-25T02:01:32.670Z,-3.66
2019-01-25T02:02:32.665Z,-3.69
2019-01-25T02:03:32.683Z,-3.59
2019-01-25T02:04:32.612Z,-3.64
2019-01-25T02:05:32.659Z,-3.68
2019-01-25T02:06:32.623Z,-3.59
2019-01-25T02:07:32.609Z,-3.64
2019-01-25T02:08:32.599Z,-3.62
2019-01-25T02:09:32.612Z,-3.62
2019-01-25T02:10:32.588Z,-3.61
2019-01-25T02:11:32.579Z,-3.66
2019-01-25T02:12:32.542Z,-3.69
2019-01-25T02:13:32.523Z,-3.65
2019-01-25T02:14:32.515Z,-3.69
2019-01-25T02:15:32.498Z,-3.69
2019-01-25T02:16:32.552Z,-3.74
2019-01-25T02:17:32.500Z,-3.66
2019-01-25T02:18:32.516Z,-3.64
2019-01-25T02:19:32.513Z,-3.66
2019-01-25T02:20:32.510Z,-3.64
2019-01-25T02:21:32.452Z,-3.64
2019-01-25T02:22:32.432Z,-3.81
2019-01-25T02:23:32.436Z,-3.74
2019-01-25T02:24:32.452Z,-3.69
2019-01-25T02:25:32.433Z,-3.81
2019-01-25T02:26:32.413Z,-3.78
2019-01-25T02:27:32.415Z,-3.71
2019-01-25T02:28:32.466Z,-3.77
2019-01-25T02:29:32.387Z,-3.68
2019-01-25T02:30:32.441Z,-3.77
2019-01-25T02:31:32.403Z,-3.71
2019-01-25T02:32:32.363Z,-3.66
2019-01-25T02:33:32.377Z,-3.62
2019-01-25T02:34:32.357Z,-3.66
2019-01-25T02:35:32.369Z,-3.66
2019-01-25T02:36:32.345Z,-3.74
2019-01-25T02:37:32.324Z,-3.71
2019-01-25T02:38:32.340Z,-3.69
2019-01-25T02:39:32.311Z,-3.69
2019-01-25T02:40:38.574Z,-3.74
2019-01-25T02:41:33.321Z,-3.77
2019-01-25T02:42:33.271Z,-3.77
2019-01-25T02:43:32.267Z,-3.77
2019-01-25T02:44:32.306Z,-3.68
2019-01-25T02:45:32.253Z,-3.68
2019-01-25T02:46:32.249Z,-3.64
2019-01-25T02:47:32.218Z,-3.68
2019-01-25T02:48:32.260Z,-3.69
2019-01-25T02:49:32.239Z,-3.66
2019-01-25T02:50:32.279Z,-3.69
2019-01-25T02:51:32.209Z,-3.77
2019-01-25T02:52:32.181Z,-3.71
2019-01-25T02:53:32.144Z,-3.69
2019-01-25T02:54:32.200Z,-3.71
2019-01-25T02:55:32.173Z,-3.65
2019-01-25T02:56:32.152Z,-3.69
2019-01-25T02:57:32.116Z,-3.65
2019-01-25T02:58:32.092Z,-3.66
2019-01-25T02:59:32.120Z,-3.69
2019-01-25T03:00:32.048Z,-3.68
2019-01-25T03:01:32.101Z,-3.68
2019-01-25T03:02:32.044Z,-3.69
2019-01-25T03:03:32.046Z,-3.66
2019-01-25T03:04:32.060Z,-3.69
2019-01-25T03:05:32.004Z,-3.69
2019-01-25T03:06:32.027Z,-3.68
2019-01-25T03:07:32.019Z,-3.66
2019-01-25T03:08:32.007Z,-3.75
2019-01-25T03:09:32.004Z,-3.75
2019-01-25T03:10:31.957Z,-3.66
2019-01-25T03:11:31.995Z,-3.64
2019-01-25T03:12:31.954Z,-3.71
2019-01-25T03:13:31.941Z,-3.71
2019-01-25T03:14:31.914Z,-3.69
2019-01-25T03:15:31.944Z,-3.65
2019-01-25T03:16:31.923Z,-3.64
2019-01-25T03:17:31.934Z,-3.62
2019-01-25T03:18:31.882Z,-3.61
2019-01-25T03:19:31.864Z,-3.62
2019-01-25T03:20:31.866Z,-3.62
2019-01-25T03:21:31.880Z,-3.62
2019-01-25T03:22:31.885Z,-3.62
2019-01-25T03:23:31.838Z,-3.66
2019-01-25T03:24:31.861Z,-3.65
2019-01-25T03:25:31.854Z,-3.62
2019-01-25T03:26:31.804Z,-3.58
2019-01-25T03:27:31.820Z,-3.65
2019-01-25T03:28:31.794Z,-3.65
2019-01-25T03:29:31.755Z,-3.59
2019-01-25T03:30:31.765Z,-3.68
2019-01-25T03:31:31.743Z,-3.69
2019-01-25T03:32:31.753Z,-3.66
2019-01-25T03:33:31.768Z,-3.66
2019-01-25T03:34:31.709Z,-3.71
2019-01-25T03:35:31.693Z,-3.64
2019-01-25T03:36:31.696Z,-3.66
2019-01-25T03:37:31.675Z,-3.71
2019-01-25T03:38:31.783Z,-3.66
2019-01-25T03:39:31.685Z,-3.68
2019-01-25T03:40:31.654Z,-3.69
2019-01-25T03:41:31.753Z,-3.66
2019-01-25T03:42:31.660Z,-3.66
2019-01-25T03:43:31.619Z,-3.65
2019-01-25T03:44:31.661Z,-3.68
2019-01-25T03:45:31.641Z,-3.68
2019-01-25T03:46:31.597Z,-3.62
2019-01-25T03:47:31.580Z,-3.68
2019-01-25T03:48:31.576Z,-3.71
2019-01-25T03:49:31.552Z,-3.74
2019-01-25T03:50:31.635Z,-3.74
2019-01-25T03:51:31.550Z,-3.61
2019-01-25T03:52:31.576Z,-3.65
2019-01-25T03:53:31.535Z,-3.55
2019-01-25T03:54:31.522Z,-3.64
2019-01-25T03:55:31.516Z,-3.62
2019-01-25T03:56:31.538Z,-3.64
2019-01-25T03:57:31.499Z,-3.66
2019-01-25T03:58:31.469Z,-3.68
2019-01-25T03:59:31.473Z,-3.74
2019-01-25T04:00:31.449Z,-3.66
2019-01-25T04:01:31.469Z,-3.68
2019-01-25T04:02:31.436Z,-3.69
2019-01-25T04:03:31.421Z,-3.69
2019-01-25T04:04:31.404Z,-3.66
2019-01-25T04:05:31.424Z,-3.77
2019-01-25T04:06:31.387Z,-3.69
2019-01-25T04:07:31.391Z,-3.66
2019-01-25T04:08:31.372Z,-3.64
2019-01-25T04:09:31.362Z,-3.62
2019-01-25T04:10:31.362Z,-3.61
2019-01-25T04:11:31.413Z,-3.65
2019-01-25T04:12:31.325Z,-3.62
2019-01-25T04:13:31.325Z,-3.68
2019-01-25T04:14:31.308Z,-3.58
2019-01-25T04:15:31.336Z,-3.58
2019-01-25T04:16:31.285Z,-3.64
2019-01-25T04:17:31.281Z,-3.59
2019-01-25T04:18:31.270Z,-3.62
2019-01-25T04:19:31.261Z,-3.62
2019-01-25T04:20:31.245Z,-3.61
2019-01-25T04:21:31.285Z,-3.64
2019-01-25T04:22:31.216Z,-3.58
2019-01-25T04:23:31.219Z,-3.62
2019-01-25T04:24:31.212Z,-3.62
2019-01-25T04:25:31.203Z,-3.65
2019-01-25T04:26:31.193Z,-3.58
2019-01-25T04:27:31.179Z,-3.66
2019-01-25T04:28:31.203Z,-3.68
2019-01-25T04:29:31.207Z,-3.66
2019-01-25T04:30:32.844Z,-3.69
2019-01-25T04:31:31.163Z,-3.61
2019-01-25T04:32:31.175Z,-3.61
2019-01-25T04:33:31.109Z,-3.61
2019-01-25T04:34:31.096Z,-3.58
2019-01-25T04:35:31.095Z,-3.62
2019-01-25T04:36:31.102Z,-3.64
2019-01-25T04:37:31.114Z,-3.69
2019-01-25T04:38:31.081Z,-3.65
2019-01-25T04:39:31.073Z,-3.61
2019-01-25T04:40:31.034Z,-3.61
2019-01-25T04:41:31.022Z,-3.68
2019-01-25T04:42:31.047Z,-3.62
2019-01-25T04:43:31.003Z,-3.62
2019-01-25T04:44:31.026Z,-3.59
2019-01-25T04:45:31.022Z,-3.68
2019-01-25T04:46:31.003Z,-3.68
2019-01-25T04:47:30.985Z,-3.65
2019-01-25T04:48:30.969Z,-3.71
2019-01-25T04:49:30.976Z,-3.66
2019-01-25T04:50:30.944Z,-3.66
2019-01-25T04:51:30.958Z,-3.71
2019-01-25T04:52:30.985Z,-3.83
2019-01-25T04:53:30.931Z,-3.65
2019-01-25T04:54:30.920Z,-3.68
2019-01-25T04:55:30.888Z,-3.66
2019-01-25T04:56:30.900Z,-3.77
2019-01-25T04:57:30.876Z,-3.77
2019-01-25T04:58:30.897Z,-3.74
2019-01-25T04:59:30.902Z,-3.78
2019-01-25T05:00:30.870Z,-3.77
2019-01-25T05:01:30.837Z,-3.77
2019-01-25T05:02:30.810Z,-3.75
2019-01-25T05:03:30.854Z,-3.68
2019-01-25T05:04:30.816Z,-3.68
2019-01-25T05:05:30.794Z,-3.71
2019-01-25T05:06:30.798Z,-3.75
2019-01-25T05:07:30.761Z,-3.77
2019-01-25T05:08:30.772Z,-3.71
2019-01-25T05:09:30.745Z,-3.74
2019-01-25T05:10:30.736Z,-3.68
2019-01-25T05:11:30.716Z,-3.68
2019-01-25T05:12:30.760Z,-3.71
2019-01-25T05:13:31.698Z,-3.74
2019-01-25T05:14:30.718Z,-3.74
2019-01-25T05:15:30.684Z,-3.71
2019-01-25T05:16:30.701Z,-3.71
2019-01-25T05:17:30.767Z,-3.71
2019-01-25T05:18:30.698Z,-3.64
2019-01-25T05:19:30.699Z,-3.74
2019-01-25T05:20:30.683Z,-3.71
2019-01-25T05:21:30.627Z,-3.71
2019-01-25T05:22:30.652Z,-3.80
2019-01-25T05:23:30.645Z,-3.80
2019-01-25T05:24:30.589Z,-3.81
2019-01-25T05:25:30.611Z,-3.81
2019-01-25T05:26:30.614Z,-3.85
2019-01-25T05:27:30.573Z,-3.83
2019-01-25T05:28:30.556Z,-3.84
2019-01-25T05:29:30.570Z,-3.85
2019-01-25T05:30:30.583Z,-3.95
2019-01-25T05:31:30.517Z,-3.77
2019-01-25T05:32:30.550Z,-3.98
2019-01-25T05:33:30.501Z,-3.80
2019-01-25T05:34:30.478Z,-3.83
2019-01-25T05:35:30.479Z,-3.80
2019-01-25T05:36:30.483Z,-3.88
2019-01-25T05:37:30.463Z,-3.84
2019-01-25T05:38:30.494Z,-3.94
2019-01-25T05:39:30.475Z,-3.91
2019-01-25T05:40:30.486Z,-3.96
2019-01-25T05:41:30.465Z,-3.98
2019-01-25T05:42:30.409Z,-3.95
2019-01-25T05:43:30.400Z,-3.94
2019-01-25T05:44:30.376Z,-3.94
2019-01-25T05:45:30.388Z,-3.95
2019-01-25T05:46:30.361Z,-3.94
2019-01-25T05:47:30.364Z,-3.87
2019-01-25T05:48:30.360Z,-3.94
2019-01-25T05:49:30.361Z,-3.94
2019-01-25T05:50:30.340Z,-3.88
2019-01-25T05:51:33.753Z,-3.94
2019-01-25T05:52:30.289Z,-3.96
2019-01-25T05:53:30.340Z,-3.95
2019-01-25T05:54:30.307Z,-3.94
2019-01-25T05:55:30.318Z,-3.81
2019-01-25T05:56:30.281Z,-3.85
2019-01-25T05:57:30.252Z,-3.84
2019-01-25T05:58:30.268Z,-3.83
2019-01-25T05:59:30.251Z,-3.69
2019-01-25T06:00:30.243Z,-3.74
2019-01-25T06:01:30.217Z,-3.83
2019-01-25T06:02:30.200Z,-3.81
2019-01-25T06:03:30.250Z,-3.87
2019-01-25T06:04:30.208Z,-3.94
2019-01-25T06:05:30.259Z,-3.81
2019-01-25T06:06:30.167Z,-3.83
2019-01-25T06:07:30.146Z,-3.85
2019-01-25T06:08:30.199Z,-3.85
2019-01-25T06:09:30.136Z,-3.87
2019-01-25T06:10:30.139Z,-3.80
2019-01-25T06:11:35.478Z,-3.84
2019-01-25T06:12:31.165Z,-3.81
2019-01-25T06:13:30.114Z,-3.84
2019-01-25T06:14:30.107Z,-3.84
2019-01-25T06:15:30.076Z,-3.78
2019-01-25T06:16:30.051Z,-3.85
2019-01-25T06:17:30.061Z,-3.87
2019-01-25T06:18:30.090Z,-3.81
2019-01-25T06:19:30.081Z,-3.81
2019-01-25T06:20:30.038Z,-3.84
2019-01-25T06:21:30.015Z,-3.94
2019-01-25T06:22:30.009Z,-3.95
2019-01-25T06:23:29.998Z,-3.91
2019-01-25T06:24:29.991Z,-3.91
2019-01-25T06:25:30.002Z,-3.90
2019-01-25T06:26:29.973Z,-3.96
2019-01-25T06:27:29.959Z,-3.83
2019-01-25T06:28:29.939Z,-3.85
2019-01-25T06:29:29.927Z,-3.80
2019-01-25T06:30:29.942Z,-3.83
2019-01-25T06:31:29.909Z,-3.81
2019-01-25T06:32:29.906Z,-3.83
2019-01-25T06:33:29.898Z,-3.78
2019-01-25T06:34:29.877Z,-3.80
2019-01-25T06:35:29.886Z,-3.94
2019-01-25T06:36:29.858Z,-3.90
2019-01-25T06:37:29.864Z,-3.87
2019-01-25T06:38:29.843Z,-3.87
2019-01-25T06:39:29.851Z,-3.95
2019-01-25T06:40:29.854Z,-3.94
2019-01-25T06:41:29.785Z,-3.90
2019-01-25T06:42:29.793Z,-3.88
2019-01-25T06:43:29.827Z,-3.83
2019-01-25T06:44:29.799Z,-3.84
2019-01-25T06:45:29.786Z,-3.84
2019-01-25T06:46:29.804Z,-3.95
2019-01-25T06:47:29.782Z,-3.87
2019-01-25T06:48:29.732Z,-3.88
2019-01-25T06:49:29.734Z,-3.91
2019-01-25T06:50:29.726Z,-3.87
2019-01-25T06:51:29.722Z,-3.95
2019-01-25T06:52:29.696Z,-3.90
2019-01-25T06:53:29.695Z,-3.90
2019-01-25T06:54:29.669Z,-3.98
2019-01-25T06:55:29.687Z,-3.91
2019-01-25T06:56:29.704Z,-3.87
2019-01-25T06:57:29.651Z,-3.96
2019-01-25T06:58:29.637Z,-3.91
2019-01-25T06:59:29.611Z,-3.95
2019-01-25T07:00:29.628Z,-3.78
2019-01-25T07:01:29.633Z,-3.85
2019-01-25T07:02:29.630Z,-3.81
2019-01-25T07:03:29.605Z,-3.80
2019-01-25T07:04:29.603Z,-3.84
2019-01-25T07:05:29.577Z,-3.78
2019-01-25T07:06:29.562Z,-3.88
2019-01-25T07:07:29.740Z,-3.84
2019-01-25T07:08:29.585Z,-3.90
2019-01-25T07:09:29.542Z,-3.91
2019-01-25T07:10:29.602Z,-3.91
2019-01-25T07:11:29.499Z,-3.80
2019-01-25T07:12:29.524Z,-3.81
2019-01-25T07:13:29.487Z,-3.81
2019-01-25T07:14:29.483Z,-3.78
2019-01-25T07:15:29.452Z,-3.83
2019-01-25T07:16:29.451Z,-3.80
2019-01-25T07:17:29.464Z,-3.80
2019-01-25T07:18:39.933Z,-3.77
2019-01-25T07:19:38.470Z,-3.78
2019-01-25T07:20:38.465Z,-3.78
2019-01-25T07:21:38.493Z,-3.78
2019-01-25T07:22:29.550Z,-3.69
2019-01-25T07:23:29.363Z,-3.69
2019-01-25T07:24:29.418Z,-3.65
2019-01-25T07:26:52.367Z,-3.66
